sensor_id;sensor_type;location;lat;lon;timestamp;P1;durP1;ratioP1;P2;durP2;ratioP2
25653;SDS011;13511;48.622;9.230;2022-08-04T00:01:27;5.25;;;4.75;;
25653;SDS011;13511;48.622;9.230;2022-08-04T00:08:51;4.88;;;4.40;;
25653;SDS011;13511;48.622;9.230;2022-08-04T00:11:20;5.03;;;4.70;;
25653;SDS011;13511;48.622;9.230;2022-08-04T00:13:58;5.28;;;4.43;;
25653;SDS011;13511;48.622;9.230;2022-08-04T00:16:27;5.63;;;4.40;;
25653;SDS011;13511;48.622;9.230;2022-08-04T00:18:54;4.82;;;4.35;;
25653;SDS011;13511;48.622;9.230;2022-08-04T00:21:23;4.65;;;4.40;;
25653;SDS011;13511;48.622;9.230;2022-08-04T00:23:50;4.78;;;4.40;;
25653;SDS011;13511;48.622;9.230;2022-08-04T00:26:17;7.18;;;4.53;;
25653;SDS011;13511;48.622;9.230;2022-08-04T00:28:43;4.72;;;4.32;;
25653;SDS011;13511;48.622;9.230;2022-08-04T00:31:09;7.50;;;4.35;;
25653;SDS011;13511;48.622;9.230;2022-08-04T00:33:36;6.65;;;4.72;;
25653;SDS011;13511;48.622;9.230;2022-08-04T00:36:02;5.95;;;4.35;;
25653;SDS011;13511;48.622;9.230;2022-08-04T00:38:29;5.18;;;4.68;;
25653;SDS011;13511;48.622;9.230;2022-08-04T00:43:32;4.70;;;4.40;;
25653;SDS011;13511;48.622;9.230;2022-08-04T00:59:08;9.23;;;4.85;;
25653;SDS011;13511;48.622;9.230;2022-08-04T01:04:14;4.97;;;4.40;;
25653;SDS011;13511;48.622;9.230;2022-08-04T01:07:04;5.10;;;4.60;;
25653;SDS011;13511;48.622;9.230;2022-08-04T01:09:35;4.25;;;4.05;;
25653;SDS011;13511;48.622;9.230;2022-08-04T01:12:30;6.03;;;4.28;;
25653;SDS011;13511;48.622;9.230;2022-08-04T01:20:09;4.65;;;4.45;;
25653;SDS011;13511;48.622;9.230;2022-08-04T01:22:41;4.95;;;4.43;;
25653;SDS011;13511;48.622;9.230;2022-08-04T01:30:24;4.97;;;4.53;;
25653;SDS011;13511;48.622;9.230;2022-08-04T01:32:52;4.80;;;4.40;;
25653;SDS011;13511;48.622;9.230;2022-08-04T01:35:21;4.82;;;4.43;;
25653;SDS011;13511;48.622;9.230;2022-08-04T01:40:49;4.55;;;4.20;;
25653;SDS011;13511;48.622;9.230;2022-08-04T01:43:17;5.45;;;4.35;;
25653;SDS011;13511;48.622;9.230;2022-08-04T01:45:43;5.07;;;4.22;;
25653;SDS011;13511;48.622;9.230;2022-08-04T01:48:10;5.85;;;4.40;;
25653;SDS011;13511;48.622;9.230;2022-08-04T01:50:37;4.45;;;4.05;;
25653;SDS011;13511;48.622;9.230;2022-08-04T01:53:04;5.07;;;4.30;;
25653;SDS011;13511;48.622;9.230;2022-08-04T01:55:30;5.32;;;4.25;;
25653;SDS011;13511;48.622;9.230;2022-08-04T01:57:58;5.38;;;4.50;;
25653;SDS011;13511;48.622;9.230;2022-08-04T02:00:25;4.15;;;3.85;;
25653;SDS011;13511;48.622;9.230;2022-08-04T02:02:51;4.40;;;4.10;;
25653;SDS011;13511;48.622;9.230;2022-08-04T02:05:18;4.50;;;4.10;;
25653;SDS011;13511;48.622;9.230;2022-08-04T02:18:18;4.32;;;4.03;;
25653;SDS011;13511;48.622;9.230;2022-08-04T02:20:48;4.50;;;4.18;;
25653;SDS011;13511;48.622;9.230;2022-08-04T02:23:30;4.43;;;4.00;;
25653;SDS011;13511;48.622;9.230;2022-08-04T02:26:00;4.90;;;4.45;;
25653;SDS011;13511;48.622;9.230;2022-08-04T02:33:37;4.68;;;4.38;;
25653;SDS011;13511;48.622;9.230;2022-08-04T02:36:05;4.55;;;4.13;;
25653;SDS011;13511;48.622;9.230;2022-08-04T02:38:39;4.57;;;4.20;;
25653;SDS011;13511;48.622;9.230;2022-08-04T02:41:08;4.43;;;4.03;;
25653;SDS011;13511;48.622;9.230;2022-08-04T02:43:35;5.07;;;4.68;;
25653;SDS011;13511;48.622;9.230;2022-08-04T02:46:01;4.63;;;4.22;;
25653;SDS011;13511;48.622;9.230;2022-08-04T02:48:28;5.45;;;4.60;;
25653;SDS011;13511;48.622;9.230;2022-08-04T02:50:56;4.75;;;4.30;;
25653;SDS011;13511;48.622;9.230;2022-08-04T02:53:22;4.28;;;3.92;;
25653;SDS011;13511;48.622;9.230;2022-08-04T02:55:49;5.53;;;4.10;;
25653;SDS011;13511;48.622;9.230;2022-08-04T02:58:18;4.63;;;4.22;;
25653;SDS011;13511;48.622;9.230;2022-08-04T03:00:44;4.65;;;4.35;;
25653;SDS011;13511;48.622;9.230;2022-08-04T03:03:15;5.45;;;4.55;;
25653;SDS011;13511;48.622;9.230;2022-08-04T03:42:18;5.32;;;4.82;;
25653;SDS011;13511;48.622;9.230;2022-08-04T03:45:17;5.18;;;3.90;;
25653;SDS011;13511;48.622;9.230;2022-08-04T03:47:46;4.53;;;4.18;;
25653;SDS011;13511;48.622;9.230;2022-08-04T03:58:28;6.60;;;4.07;;
25653;SDS011;13511;48.622;9.230;2022-08-04T04:26:43;6.10;;;4.25;;
25653;SDS011;13511;48.622;9.230;2022-08-04T04:32:02;4.68;;;4.38;;
25653;SDS011;13511;48.622;9.230;2022-08-04T04:39:51;6.03;;;4.38;;
25653;SDS011;13511;48.622;9.230;2022-08-04T04:50:39;4.68;;;4.28;;
25653;SDS011;13511;48.622;9.230;2022-08-04T04:53:08;6.03;;;4.20;;
25653;SDS011;13511;48.622;9.230;2022-08-04T04:55:46;4.18;;;3.83;;
25653;SDS011;13511;48.622;9.230;2022-08-04T04:58:16;7.35;;;4.25;;
25653;SDS011;13511;48.622;9.230;2022-08-04T05:00:48;7.72;;;4.47;;
25653;SDS011;13511;48.622;9.230;2022-08-04T05:03:34;4.85;;;4.20;;
25653;SDS011;13511;48.622;9.230;2022-08-04T05:13:36;6.00;;;3.95;;
25653;SDS011;13511;48.622;9.230;2022-08-04T05:16:08;4.40;;;4.13;;
25653;SDS011;13511;48.622;9.230;2022-08-04T05:18:36;9.07;;;4.45;;
25653;SDS011;13511;48.622;9.230;2022-08-04T05:21:08;4.70;;;4.30;;
25653;SDS011;13511;48.622;9.230;2022-08-04T05:23:36;5.63;;;4.32;;
25653;SDS011;13511;48.622;9.230;2022-08-04T05:26:06;6.75;;;4.40;;
25653;SDS011;13511;48.622;9.230;2022-08-04T05:28:46;5.18;;;4.78;;
25653;SDS011;13511;48.622;9.230;2022-08-04T05:31:17;4.55;;;4.15;;
25653;SDS011;13511;48.622;9.230;2022-08-04T05:33:53;4.13;;;3.92;;
25653;SDS011;13511;48.622;9.230;2022-08-04T05:36:21;5.20;;;4.68;;
25653;SDS011;13511;48.622;9.230;2022-08-04T05:38:54;4.22;;;3.95;;
25653;SDS011;13511;48.622;9.230;2022-08-04T05:41:23;4.95;;;4.55;;
25653;SDS011;13511;48.622;9.230;2022-08-04T05:43:51;5.10;;;4.70;;
25653;SDS011;13511;48.622;9.230;2022-08-04T05:46:17;5.13;;;4.82;;
25653;SDS011;13511;48.622;9.230;2022-08-04T05:48:44;4.68;;;4.18;;
25653;SDS011;13511;48.622;9.230;2022-08-04T05:51:10;6.15;;;4.70;;
25653;SDS011;13511;48.622;9.230;2022-08-04T05:53:37;6.18;;;4.40;;
25653;SDS011;13511;48.622;9.230;2022-08-04T05:56:04;4.93;;;4.25;;
25653;SDS011;13511;48.622;9.230;2022-08-04T05:58:30;5.18;;;4.78;;
25653;SDS011;13511;48.622;9.230;2022-08-04T06:00:58;4.80;;;4.50;;
25653;SDS011;13511;48.622;9.230;2022-08-04T06:03:26;4.95;;;4.30;;
25653;SDS011;13511;48.622;9.230;2022-08-04T06:05:53;4.20;;;4.00;;
25653;SDS011;13511;48.622;9.230;2022-08-04T06:08:21;5.68;;;4.97;;
25653;SDS011;13511;48.622;9.230;2022-08-04T06:10:48;5.20;;;4.72;;
25653;SDS011;13511;48.622;9.230;2022-08-04T06:13:16;5.15;;;4.75;;
25653;SDS011;13511;48.622;9.230;2022-08-04T06:15:43;4.70;;;4.40;;
25653;SDS011;13511;48.622;9.230;2022-08-04T06:18:12;5.90;;;4.85;;
25653;SDS011;13511;48.622;9.230;2022-08-04T06:20:39;5.80;;;4.40;;
25653;SDS011;13511;48.622;9.230;2022-08-04T06:23:08;6.53;;;4.80;;
25653;SDS011;13511;48.622;9.230;2022-08-04T06:25:39;4.97;;;4.45;;
25653;SDS011;13511;48.622;9.230;2022-08-04T06:28:06;5.10;;;4.80;;
25653;SDS011;13511;48.622;9.230;2022-08-04T06:30:32;4.68;;;4.25;;
25653;SDS011;13511;48.622;9.230;2022-08-04T06:32:59;4.72;;;4.53;;
25653;SDS011;13511;48.622;9.230;2022-08-04T06:35:27;4.78;;;4.40;;
25653;SDS011;13511;48.622;9.230;2022-08-04T06:37:53;5.28;;;4.15;;
25653;SDS011;13511;48.622;9.230;2022-08-04T06:40:20;5.03;;;4.55;;
25653;SDS011;13511;48.622;9.230;2022-08-04T06:42:47;4.45;;;4.15;;
25653;SDS011;13511;48.622;9.230;2022-08-04T06:45:13;4.65;;;4.45;;
25653;SDS011;13511;48.622;9.230;2022-08-04T06:47:40;4.88;;;4.20;;
25653;SDS011;13511;48.622;9.230;2022-08-04T06:50:07;6.00;;;4.53;;
25653;SDS011;13511;48.622;9.230;2022-08-04T06:52:34;4.53;;;4.22;;
25653;SDS011;13511;48.622;9.230;2022-08-04T06:55:00;5.38;;;4.97;;
25653;SDS011;13511;48.622;9.230;2022-08-04T06:57:26;4.95;;;4.60;;
25653;SDS011;13511;48.622;9.230;2022-08-04T06:59:55;4.57;;;4.28;;
25653;SDS011;13511;48.622;9.230;2022-08-04T07:02:26;5.20;;;4.80;;
25653;SDS011;13511;48.622;9.230;2022-08-04T07:04:52;4.70;;;4.35;;
25653;SDS011;13511;48.622;9.230;2022-08-04T07:07:18;4.15;;;3.95;;
25653;SDS011;13511;48.622;9.230;2022-08-04T07:09:44;5.10;;;4.75;;
25653;SDS011;13511;48.622;9.230;2022-08-04T07:12:10;4.90;;;4.50;;
25653;SDS011;13511;48.622;9.230;2022-08-04T07:14:38;4.85;;;4.40;;
25653;SDS011;13511;48.622;9.230;2022-08-04T07:17:05;4.63;;;4.43;;
25653;SDS011;13511;48.622;9.230;2022-08-04T07:19:36;4.88;;;4.68;;
25653;SDS011;13511;48.622;9.230;2022-08-04T07:22:03;5.20;;;4.80;;
25653;SDS011;13511;48.622;9.230;2022-08-04T07:24:32;5.43;;;4.93;;
25653;SDS011;13511;48.622;9.230;2022-08-04T07:26:58;5.43;;;4.82;;
25653;SDS011;13511;48.622;9.230;2022-08-04T07:29:25;6.55;;;4.85;;
25653;SDS011;13511;48.622;9.230;2022-08-04T07:31:51;5.00;;;4.70;;
25653;SDS011;13511;48.622;9.230;2022-08-04T07:34:18;5.80;;;5.20;;
25653;SDS011;13511;48.622;9.230;2022-08-04T07:36:44;5.38;;;4.75;;
25653;SDS011;13511;48.622;9.230;2022-08-04T07:39:10;6.93;;;5.32;;
25653;SDS011;13511;48.622;9.230;2022-08-04T07:41:37;7.65;;;5.07;;
25653;SDS011;13511;48.622;9.230;2022-08-04T07:44:03;5.55;;;5.25;;
25653;SDS011;13511;48.622;9.230;2022-08-04T07:46:30;5.45;;;5.15;;
25653;SDS011;13511;48.622;9.230;2022-08-04T07:48:56;5.40;;;5.00;;
25653;SDS011;13511;48.622;9.230;2022-08-04T07:51:23;5.00;;;4.60;;
25653;SDS011;13511;48.622;9.230;2022-08-04T07:53:50;5.30;;;4.88;;
25653;SDS011;13511;48.622;9.230;2022-08-04T07:56:16;5.18;;;4.88;;
25653;SDS011;13511;48.622;9.230;2022-08-04T07:58:42;5.72;;;5.30;;
25653;SDS011;13511;48.622;9.230;2022-08-04T08:01:08;6.03;;;5.47;;
25653;SDS011;13511;48.622;9.230;2022-08-04T08:03:35;5.68;;;5.18;;
25653;SDS011;13511;48.622;9.230;2022-08-04T08:06:02;11.02;;;5.88;;
25653;SDS011;13511;48.622;9.230;2022-08-04T08:08:29;8.35;;;5.10;;
25653;SDS011;13511;48.622;9.230;2022-08-04T08:10:55;7.25;;;5.38;;
25653;SDS011;13511;48.622;9.230;2022-08-04T08:13:21;5.60;;;5.30;;
25653;SDS011;13511;48.622;9.230;2022-08-04T08:15:49;8.10;;;5.25;;
25653;SDS011;13511;48.622;9.230;2022-08-04T08:18:15;7.65;;;5.53;;
25653;SDS011;13511;48.622;9.230;2022-08-04T08:20:44;5.43;;;5.03;;
25653;SDS011;13511;48.622;9.230;2022-08-04T08:23:10;5.40;;;5.10;;
25653;SDS011;13511;48.622;9.230;2022-08-04T08:25:37;5.38;;;5.07;;
25653;SDS011;13511;48.622;9.230;2022-08-04T08:28:03;4.75;;;4.55;;
25653;SDS011;13511;48.622;9.230;2022-08-04T08:30:30;5.60;;;5.10;;
25653;SDS011;13511;48.622;9.230;2022-08-04T08:32:56;5.45;;;5.05;;
25653;SDS011;13511;48.622;9.230;2022-08-04T08:35:23;5.60;;;5.30;;
25653;SDS011;13511;48.622;9.230;2022-08-04T08:37:51;6.65;;;5.00;;
25653;SDS011;13511;48.622;9.230;2022-08-04T08:40:32;5.60;;;5.10;;
25653;SDS011;13511;48.622;9.230;2022-08-04T09:11:17;5.72;;;5.38;;
25653;SDS011;13511;48.622;9.230;2022-08-04T09:14:19;5.65;;;5.25;;
25653;SDS011;13511;48.622;9.230;2022-08-04T09:16:39;7.60;;;5.88;;
25653;SDS011;13511;48.622;9.230;2022-08-04T09:21:38;5.57;;;5.00;;
25653;SDS011;13511;48.622;9.230;2022-08-04T09:24:19;8.70;;;4.53;;
25653;SDS011;13511;48.622;9.230;2022-08-04T09:26:49;4.65;;;4.45;;
25653;SDS011;13511;48.622;9.230;2022-08-04T09:37:24;5.03;;;4.10;;
25653;SDS011;13511;48.622;9.230;2022-08-04T09:42:49;4.47;;;4.28;;
25653;SDS011;13511;48.622;9.230;2022-08-04T09:47:53;4.75;;;4.38;;
25653;SDS011;13511;48.622;9.230;2022-08-04T09:52:55;4.90;;;4.60;;
25653;SDS011;13511;48.622;9.230;2022-08-04T09:55:41;5.63;;;5.32;;
25653;SDS011;13511;48.622;9.230;2022-08-04T10:01:01;5.80;;;5.25;;
25653;SDS011;13511;48.622;9.230;2022-08-04T10:03:31;5.28;;;4.88;;
25653;SDS011;13511;48.622;9.230;2022-08-04T10:06:24;5.18;;;4.78;;
25653;SDS011;13511;48.622;9.230;2022-08-04T10:11:20;4.88;;;4.47;;
25653;SDS011;13511;48.622;9.230;2022-08-04T10:22:35;4.82;;;4.43;;
25653;SDS011;13511;48.622;9.230;2022-08-04T10:27:29;4.45;;;4.13;;
25653;SDS011;13511;48.622;9.230;2022-08-04T10:30:01;4.70;;;4.40;;
25653;SDS011;13511;48.622;9.230;2022-08-04T10:32:36;5.00;;;4.80;;
25653;SDS011;13511;48.622;9.230;2022-08-04T10:35:08;5.22;;;4.82;;
25653;SDS011;13511;48.622;9.230;2022-08-04T10:37:41;5.05;;;4.85;;
25653;SDS011;13511;48.622;9.230;2022-08-04T10:40:13;4.80;;;4.60;;
25653;SDS011;13511;48.622;9.230;2022-08-04T10:45:48;4.30;;;4.10;;
25653;SDS011;13511;48.622;9.230;2022-08-04T10:51:05;4.50;;;4.20;;
25653;SDS011;13511;48.622;9.230;2022-08-04T10:53:35;3.80;;;3.70;;
25653;SDS011;13511;48.622;9.230;2022-08-04T10:56:26;4.70;;;4.40;;
25653;SDS011;13511;48.622;9.230;2022-08-04T10:58:49;4.43;;;4.20;;
25653;SDS011;13511;48.622;9.230;2022-08-04T11:01:18;4.82;;;4.55;;
25653;SDS011;13511;48.622;9.230;2022-08-04T11:03:47;4.35;;;4.20;;
25653;SDS011;13511;48.622;9.230;2022-08-04T11:06:14;5.15;;;4.65;;
25653;SDS011;13511;48.622;9.230;2022-08-04T11:08:46;3.95;;;3.85;;
25653;SDS011;13511;48.622;9.230;2022-08-04T11:14:04;4.63;;;4.20;;
25653;SDS011;13511;48.622;9.230;2022-08-04T11:16:35;4.88;;;4.50;;
25653;SDS011;13511;48.622;9.230;2022-08-04T11:19:09;4.53;;;4.05;;
25653;SDS011;13511;48.622;9.230;2022-08-04T11:24:44;4.50;;;4.30;;
25653;SDS011;13511;48.622;9.230;2022-08-04T11:27:12;4.80;;;4.65;;
25653;SDS011;13511;48.622;9.230;2022-08-04T11:32:25;4.90;;;4.70;;
25653;SDS011;13511;48.622;9.230;2022-08-04T11:34:56;5.20;;;4.90;;
25653;SDS011;13511;48.622;9.230;2022-08-04T11:37:25;4.80;;;4.40;;
25653;SDS011;13511;48.622;9.230;2022-08-04T11:40:27;4.75;;;4.53;;
25653;SDS011;13511;48.622;9.230;2022-08-04T11:42:52;5.18;;;4.78;;
25653;SDS011;13511;48.622;9.230;2022-08-04T11:45:23;5.00;;;4.65;;
25653;SDS011;13511;48.622;9.230;2022-08-04T11:47:53;5.15;;;4.95;;
25653;SDS011;13511;48.622;9.230;2022-08-04T11:50:21;5.00;;;4.72;;
25653;SDS011;13511;48.622;9.230;2022-08-04T11:52:48;4.43;;;4.32;;
25653;SDS011;13511;48.622;9.230;2022-08-04T11:55:17;5.10;;;4.80;;
25653;SDS011;13511;48.622;9.230;2022-08-04T11:57:45;4.65;;;4.45;;
25653;SDS011;13511;48.622;9.230;2022-08-04T12:00:13;4.78;;;4.47;;
25653;SDS011;13511;48.622;9.230;2022-08-04T12:05:27;4.22;;;4.07;;
25653;SDS011;13511;48.622;9.230;2022-08-04T12:10:44;4.93;;;4.40;;
25653;SDS011;13511;48.622;9.230;2022-08-04T12:15:40;4.68;;;4.47;;
25653;SDS011;13511;48.622;9.230;2022-08-04T12:18:53;4.72;;;3.88;;
25653;SDS011;13511;48.622;9.230;2022-08-04T12:21:00;4.50;;;4.40;;
25653;SDS011;13511;48.622;9.230;2022-08-04T12:23:40;4.20;;;4.10;;
25653;SDS011;13511;48.622;9.230;2022-08-04T12:26:14;5.10;;;4.47;;
25653;SDS011;13511;48.622;9.230;2022-08-04T12:28:42;4.80;;;4.40;;
25653;SDS011;13511;48.622;9.230;2022-08-04T12:31:34;4.18;;;4.07;;
25653;SDS011;13511;48.622;9.230;2022-08-04T12:34:01;4.32;;;4.13;;
25653;SDS011;13511;48.622;9.230;2022-08-04T12:36:31;4.95;;;4.60;;
25653;SDS011;13511;48.622;9.230;2022-08-04T12:39:00;4.47;;;4.28;;
25653;SDS011;13511;48.622;9.230;2022-08-04T12:41:31;5.28;;;4.60;;
25653;SDS011;13511;48.622;9.230;2022-08-04T12:44:03;4.63;;;4.43;;
25653;SDS011;13511;48.622;9.230;2022-08-04T12:46:30;6.18;;;5.63;;
25653;SDS011;13511;48.622;9.230;2022-08-04T12:49:01;6.88;;;5.03;;
25653;SDS011;13511;48.622;9.230;2022-08-04T12:51:27;6.85;;;5.85;;
25653;SDS011;13511;48.622;9.230;2022-08-04T12:53:53;6.10;;;5.60;;
25653;SDS011;13511;48.622;9.230;2022-08-04T12:56:26;4.40;;;4.10;;
25653;SDS011;13511;48.622;9.230;2022-08-04T12:58:53;4.55;;;4.25;;
25653;SDS011;13511;48.622;9.230;2022-08-04T13:01:25;4.88;;;4.57;;
25653;SDS011;13511;48.622;9.230;2022-08-04T13:03:52;4.28;;;3.97;;
25653;SDS011;13511;48.622;9.230;2022-08-04T13:06:22;4.40;;;4.20;;
25653;SDS011;13511;48.622;9.230;2022-08-04T13:08:48;4.20;;;3.90;;
25653;SDS011;13511;48.622;9.230;2022-08-04T13:11:14;5.25;;;4.85;;
25653;SDS011;13511;48.622;9.230;2022-08-04T13:13:42;4.50;;;4.20;;
25653;SDS011;13511;48.622;9.230;2022-08-04T13:16:09;4.68;;;4.28;;
25653;SDS011;13511;48.622;9.230;2022-08-04T13:18:39;4.30;;;3.95;;
25653;SDS011;13511;48.622;9.230;2022-08-04T13:21:40;4.00;;;3.80;;
25653;SDS011;13511;48.622;9.230;2022-08-04T13:24:03;4.15;;;3.95;;
25653;SDS011;13511;48.622;9.230;2022-08-04T13:26:29;4.43;;;4.20;;
25653;SDS011;13511;48.622;9.230;2022-08-04T13:28:57;5.05;;;4.57;;
25653;SDS011;13511;48.622;9.230;2022-08-04T13:31:25;4.70;;;4.50;;
25653;SDS011;13511;48.622;9.230;2022-08-04T13:33:53;4.60;;;4.18;;
25653;SDS011;13511;48.622;9.230;2022-08-04T13:36:23;4.75;;;4.43;;
25653;SDS011;13511;48.622;9.230;2022-08-04T13:39:02;4.30;;;4.10;;
25653;SDS011;13511;48.622;9.230;2022-08-04T13:41:28;4.70;;;4.28;;
25653;SDS011;13511;48.622;9.230;2022-08-04T13:43:55;5.82;;;3.92;;
25653;SDS011;13511;48.622;9.230;2022-08-04T13:46:24;4.28;;;4.00;;
25653;SDS011;13511;48.622;9.230;2022-08-04T13:48:51;4.53;;;4.22;;
25653;SDS011;13511;48.622;9.230;2022-08-04T13:51:18;6.50;;;4.00;;
25653;SDS011;13511;48.622;9.230;2022-08-04T13:53:45;5.10;;;4.20;;
25653;SDS011;13511;48.622;9.230;2022-08-04T13:56:19;4.40;;;4.20;;
25653;SDS011;13511;48.622;9.230;2022-08-04T13:58:47;4.55;;;4.25;;
25653;SDS011;13511;48.622;9.230;2022-08-04T14:01:15;4.47;;;3.80;;
25653;SDS011;13511;48.622;9.230;2022-08-04T14:03:44;4.70;;;3.90;;
25653;SDS011;13511;48.622;9.230;2022-08-04T14:06:19;4.43;;;4.05;;
25653;SDS011;13511;48.622;9.230;2022-08-04T14:08:50;3.90;;;3.70;;
25653;SDS011;13511;48.622;9.230;2022-08-04T14:11:17;4.00;;;3.83;;
25653;SDS011;13511;48.622;9.230;2022-08-04T14:13:43;4.15;;;3.95;;
25653;SDS011;13511;48.622;9.230;2022-08-04T14:16:17;5.13;;;3.80;;
25653;SDS011;13511;48.622;9.230;2022-08-04T14:18:43;4.18;;;3.88;;
25653;SDS011;13511;48.622;9.230;2022-08-04T14:21:10;4.65;;;4.30;;
25653;SDS011;13511;48.622;9.230;2022-08-04T14:23:50;4.13;;;3.92;;
25653;SDS011;13511;48.622;9.230;2022-08-04T14:28:43;4.43;;;3.70;;
25653;SDS011;13511;48.622;9.230;2022-08-04T14:31:10;4.68;;;4.10;;
25653;SDS011;13511;48.622;9.230;2022-08-04T14:33:38;4.72;;;4.03;;
25653;SDS011;13511;48.622;9.230;2022-08-04T14:36:04;3.80;;;3.53;;
25653;SDS011;13511;48.622;9.230;2022-08-04T14:41:29;3.78;;;3.40;;
25653;SDS011;13511;48.622;9.230;2022-08-04T14:44:00;3.22;;;3.13;;
25653;SDS011;13511;48.622;9.230;2022-08-04T14:46:27;5.30;;;4.00;;
25653;SDS011;13511;48.622;9.230;2022-08-04T14:51:39;3.53;;;3.38;;
25653;SDS011;13511;48.622;9.230;2022-08-04T14:54:05;3.85;;;3.65;;
25653;SDS011;13511;48.622;9.230;2022-08-04T14:56:32;4.25;;;3.90;;
25653;SDS011;13511;48.622;9.230;2022-08-04T14:59:16;4.10;;;3.80;;
25653;SDS011;13511;48.622;9.230;2022-08-04T15:01:43;4.05;;;3.78;;
25653;SDS011;13511;48.622;9.230;2022-08-04T15:04:10;4.03;;;3.83;;
25653;SDS011;13511;48.622;9.230;2022-08-04T15:06:36;5.15;;;3.80;;
25653;SDS011;13511;48.622;9.230;2022-08-04T15:09:03;5.90;;;4.03;;
25653;SDS011;13511;48.622;9.230;2022-08-04T15:11:30;4.40;;;4.10;;
25653;SDS011;13511;48.622;9.230;2022-08-04T15:13:57;4.47;;;4.07;;
25653;SDS011;13511;48.622;9.230;2022-08-04T15:16:24;8.80;;;3.92;;
25653;SDS011;13511;48.622;9.230;2022-08-04T15:18:50;3.70;;;3.50;;
25653;SDS011;13511;48.622;9.230;2022-08-04T15:21:16;3.90;;;3.70;;
25653;SDS011;13511;48.622;9.230;2022-08-04T15:23:43;6.28;;;3.60;;
25653;SDS011;13511;48.622;9.230;2022-08-04T15:26:13;4.28;;;3.97;;
25653;SDS011;13511;48.622;9.230;2022-08-04T15:28:41;8.80;;;4.15;;
25653;SDS011;13511;48.622;9.230;2022-08-04T15:31:09;4.30;;;4.00;;
25653;SDS011;13511;48.622;9.230;2022-08-04T15:33:37;4.30;;;3.90;;
25653;SDS011;13511;48.622;9.230;2022-08-04T15:36:12;4.20;;;4.00;;
25653;SDS011;13511;48.622;9.230;2022-08-04T15:38:44;3.88;;;3.78;;
25653;SDS011;13511;48.622;9.230;2022-08-04T15:41:32;3.92;;;3.72;;
25653;SDS011;13511;48.622;9.230;2022-08-04T15:49:22;3.95;;;3.83;;
25653;SDS011;13511;48.622;9.230;2022-08-04T15:52:02;4.13;;;3.92;;
25653;SDS011;13511;48.622;9.230;2022-08-04T15:56:54;4.18;;;3.97;;
25653;SDS011;13511;48.622;9.230;2022-08-04T16:04:55;3.85;;;3.75;;
25653;SDS011;13511;48.622;9.230;2022-08-04T16:10:38;4.53;;;4.15;;
25653;SDS011;13511;48.622;9.230;2022-08-04T16:18:06;4.60;;;4.30;;
25653;SDS011;13511;48.622;9.230;2022-08-04T16:20:32;4.32;;;3.92;;
25653;SDS011;13511;48.622;9.230;2022-08-04T16:23:11;4.25;;;4.00;;
25653;SDS011;13511;48.622;9.230;2022-08-04T16:25:41;4.55;;;4.13;;
25653;SDS011;13511;48.622;9.230;2022-08-04T16:28:34;4.40;;;4.20;;
25653;SDS011;13511;48.622;9.230;2022-08-04T16:30:58;4.25;;;3.90;;
25653;SDS011;13511;48.622;9.230;2022-08-04T16:33:28;4.70;;;4.38;;
25653;SDS011;13511;48.622;9.230;2022-08-04T16:35:55;4.63;;;4.28;;
25653;SDS011;13511;48.622;9.230;2022-08-04T16:38:21;4.60;;;4.20;;
25653;SDS011;13511;48.622;9.230;2022-08-04T16:40:53;4.45;;;4.15;;
25653;SDS011;13511;48.622;9.230;2022-08-04T16:43:20;4.32;;;4.13;;
25653;SDS011;13511;48.622;9.230;2022-08-04T16:45:53;4.68;;;4.47;;
25653;SDS011;13511;48.622;9.230;2022-08-04T16:48:24;4.55;;;4.15;;
25653;SDS011;13511;48.622;9.230;2022-08-04T16:53:16;4.55;;;4.28;;
25653;SDS011;13511;48.622;9.230;2022-08-04T16:55:47;4.68;;;4.47;;
25653;SDS011;13511;48.622;9.230;2022-08-04T16:58:14;4.63;;;4.18;;
25653;SDS011;13511;48.622;9.230;2022-08-04T17:00:41;5.90;;;5.50;;
25653;SDS011;13511;48.622;9.230;2022-08-04T17:03:10;6.03;;;5.63;;
25653;SDS011;13511;48.622;9.230;2022-08-04T17:05:36;7.90;;;5.53;;
25653;SDS011;13511;48.622;9.230;2022-08-04T17:08:03;8.95;;;5.45;;
25653;SDS011;13511;48.622;9.230;2022-08-04T17:10:43;13.57;;;5.75;;
25653;SDS011;13511;48.622;9.230;2022-08-04T17:13:19;5.72;;;5.43;;
25653;SDS011;13511;48.622;9.230;2022-08-04T17:15:49;5.93;;;5.57;;
25653;SDS011;13511;48.622;9.230;2022-08-04T17:18:16;6.18;;;5.72;;
25653;SDS011;13511;48.622;9.230;2022-08-04T17:20:43;6.15;;;5.75;;
25653;SDS011;13511;48.622;9.230;2022-08-04T17:25:55;5.68;;;5.30;;
25653;SDS011;13511;48.622;9.230;2022-08-04T17:28:21;6.32;;;5.82;;
25653;SDS011;13511;48.622;9.230;2022-08-04T17:30:48;5.88;;;5.60;;
25653;SDS011;13511;48.622;9.230;2022-08-04T17:33:15;6.57;;;5.50;;
25653;SDS011;13511;48.622;9.230;2022-08-04T17:35:41;5.35;;;5.05;;
25653;SDS011;13511;48.622;9.230;2022-08-04T17:38:08;6.10;;;5.50;;
25653;SDS011;13511;48.622;9.230;2022-08-04T17:40:34;6.03;;;5.50;;
25653;SDS011;13511;48.622;9.230;2022-08-04T17:43:14;5.13;;;4.93;;
25653;SDS011;13511;48.622;9.230;2022-08-04T17:45:40;7.18;;;5.60;;
25653;SDS011;13511;48.622;9.230;2022-08-04T17:48:07;4.85;;;4.40;;
25653;SDS011;13511;48.622;9.230;2022-08-04T17:50:33;6.57;;;5.45;;
25653;SDS011;13511;48.622;9.230;2022-08-04T17:53:03;5.50;;;4.70;;
25653;SDS011;13511;48.622;9.230;2022-08-04T17:55:43;8.65;;;4.85;;
25653;SDS011;13511;48.622;9.230;2022-08-04T18:00:39;5.13;;;4.82;;
25653;SDS011;13511;48.622;9.230;2022-08-04T18:03:05;9.05;;;5.50;;
25653;SDS011;13511;48.622;9.230;2022-08-04T18:05:31;8.60;;;5.15;;
25653;SDS011;13511;48.622;9.230;2022-08-04T18:08:05;6.18;;;5.63;;
25653;SDS011;13511;48.622;9.230;2022-08-04T18:10:35;9.40;;;5.05;;
25653;SDS011;13511;48.622;9.230;2022-08-04T18:13:06;5.13;;;4.75;;
25653;SDS011;13511;48.622;9.230;2022-08-04T18:15:32;7.57;;;4.90;;
25653;SDS011;13511;48.622;9.230;2022-08-04T18:17:58;7.72;;;4.90;;
25653;SDS011;13511;48.622;9.230;2022-08-04T18:20:25;6.65;;;5.20;;
25653;SDS011;13511;48.622;9.230;2022-08-04T18:22:52;6.32;;;4.97;;
25653;SDS011;13511;48.622;9.230;2022-08-04T18:25:18;5.97;;;4.88;;
25653;SDS011;13511;48.622;9.230;2022-08-04T18:27:52;5.22;;;4.80;;
25653;SDS011;13511;48.622;9.230;2022-08-04T18:30:19;15.27;;;6.10;;
25653;SDS011;13511;48.622;9.230;2022-08-04T18:32:45;9.88;;;5.38;;
25653;SDS011;13511;48.622;9.230;2022-08-04T18:35:11;5.68;;;5.20;;
25653;SDS011;13511;48.622;9.230;2022-08-04T18:37:37;7.00;;;5.63;;
25653;SDS011;13511;48.622;9.230;2022-08-04T18:40:04;5.50;;;5.10;;
25653;SDS011;13511;48.622;9.230;2022-08-04T18:42:30;5.80;;;5.30;;
25653;SDS011;13511;48.622;9.230;2022-08-04T18:44:56;5.32;;;5.03;;
25653;SDS011;13511;48.622;9.230;2022-08-04T18:47:23;5.13;;;4.88;;
25653;SDS011;13511;48.622;9.230;2022-08-04T18:49:53;6.90;;;5.45;;
25653;SDS011;13511;48.622;9.230;2022-08-04T18:52:19;6.90;;;5.65;;
25653;SDS011;13511;48.622;9.230;2022-08-04T18:54:45;5.45;;;4.97;;
25653;SDS011;13511;48.622;9.230;2022-08-04T18:57:11;7.30;;;5.55;;
25653;SDS011;13511;48.622;9.230;2022-08-04T18:59:37;7.20;;;6.00;;
25653;SDS011;13511;48.622;9.230;2022-08-04T19:02:03;5.47;;;5.18;;
25653;SDS011;13511;48.622;9.230;2022-08-04T19:04:29;5.95;;;5.47;;
25653;SDS011;13511;48.622;9.230;2022-08-04T19:06:55;5.65;;;5.35;;
25653;SDS011;13511;48.622;9.230;2022-08-04T19:09:23;5.93;;;5.35;;
25653;SDS011;13511;48.622;9.230;2022-08-04T19:11:49;6.00;;;5.40;;
25653;SDS011;13511;48.622;9.230;2022-08-04T19:14:15;5.90;;;5.40;;
25653;SDS011;13511;48.622;9.230;2022-08-04T19:16:41;5.53;;;5.25;;
25653;SDS011;13511;48.622;9.230;2022-08-04T19:19:07;5.80;;;5.30;;
25653;SDS011;13511;48.622;9.230;2022-08-04T19:21:34;8.55;;;5.40;;
25653;SDS011;13511;48.622;9.230;2022-08-04T19:24:00;25.77;;;6.70;;
25653;SDS011;13511;48.622;9.230;2022-08-04T19:26:26;5.60;;;5.20;;
25653;SDS011;13511;48.622;9.230;2022-08-04T19:28:52;5.97;;;5.57;;
25653;SDS011;13511;48.622;9.230;2022-08-04T19:31:18;8.93;;;5.68;;